Hauptseite
METAR-TAF:

METAR-TAF

Flughäfen :

N’Djamena, Tschad

Flughafen N’Djamena

Breite: 12-08N, Länge: 015-02E, Höhe: 295 m

Beobachtung

Neuester Wetterbericht von vor 21 Minuten, um 08:00 UTC
Wind 6 kt aus West, variierte zwischen Südwest und Nordwest
Temperatur 34°C
Luftfeuchtigkeit 47%
Luftdruck 1011 hPa
Sichtweite: 8000 m

METAR: FTTJ 280800Z 27006KT 230V320 8000 NSC 34/21 Q1011 NOSIG

Zeit: 09:21 (08:21 UTC)

Prognose

Neuester Wetterbericht von vor 3 Stunden und 21 Minuten, um 05:00 UTC
Gültige Prognose vom 28 um 06 UTC bis 29 um 12 UTC
Wind 4 kt aus unterschiedlichen Richtungen
Sichtweite: 8000 m
Zeitweise
vom 28 um 08 UTC bis 28 um 10 UTC
Wind 10 kt aus Ost
Wahrscheinlichkeit 30% :
Zeitweise
vom 28 um 15 UTC bis 28 um 20 UTC
Gewitter

TAF: FTTJ 280500Z 2806/2912 VRB04KT 8000 NSC TEMPO 2808/2810 08010KT PROB30 TEMPO 2815/2820 TS

Wetterbeobachtungen und Prognosen von mehr als 4000 Flughäfen (METAR und TAF Bericht).

Die verfügbaren Stationen werden durch gelbe und rote Markierungen auf der Karte dargestellt.

Führen Sie die Maus auf sie, um den Namen der Station zu sehen.

Darauf klicken, um die Beobachtung von Wetterbeobachtungen und Prognosen zu sehen.

Um die Karte zu ändern : klicken Sie auf den grünen Tasten mit einem schwarzen Kreuz Zum Vergrößern, auf den grünen Button mit einem Gedankenstrich zu verkleinern, oder auf die grünen Pfeile für benachbarte Karten.


METAR-TAF: